»·PEaware :: SWA3990 KSAN-KOAK

SWA3990 :: KSAN-KOAK

FLIGHT INFORMATION

Flight Status: Arrived
Operator:
Southwest Airlines
More flights by this operator :: More flights under this callsign
Pilot: Tyler B. (19112)
Aircraft: BOEING 737-800
(B738)
More flights by this aircraft type
Origin: KSAN San Diego Intl-Lindbergh
United States
Destination: KOAK Metro Oakland Intl
United States
More flights between these airports :: More routes between these airports
Route: PADRZ1 OROSZ COREZ RGOOD EMZOH3
File this flight plan on PilotEdge
Remarks:
Altitude:
(Current/Filed)
38,000ft
Speed:
(Current/Filed)
446kts
Departed: 13-May-18 02:53 PM
Arrived: 13-May-18 04:03 PM
Distance/Time
Traveled:
387nm/1:10
Distance/Time
To Go:
Arrived

Flight Plot

Page will automatically refresh every two minutes.

Flight plan parsing failed; only flown route is shown


Map Options




Map Legend


Flown Route
Filed Route
Departure Airport
Arrival Airport
Navaid (VOR, NDB)
Fix

Horizontal Profiles

Position Reports

Time Latitude Longitude Heading Altitude Ground
Speed
13-May-18 14:31 32.732332 -117.195911 307 19ft 0kts
13-May-18 14:32 32.732332 -117.195911 307 19ft 0kts
13-May-18 14:33 32.732332 -117.195911 307 19ft 0kts
13-May-18 14:34 32.732332 -117.195911 307 19ft 0kts
13-May-18 14:35 32.732332 -117.195911 307 19ft 0kts
13-May-18 14:36 32.732332 -117.195911 307 19ft 0kts
13-May-18 14:37 32.732332 -117.195911 307 19ft 0kts
13-May-18 14:38 32.732332 -117.195911 307 19ft 0kts
13-May-18 14:39 32.732332 -117.195911 307 19ft 0kts
13-May-18 14:40 32.732332 -117.195911 307 19ft 0kts
13-May-18 14:41 32.732332 -117.195911 307 19ft 0kts
13-May-18 14:42 32.732059 -117.195353 271 20ft 2kts
13-May-18 14:43 32.731768 -117.195003 22 21ft 1kts
13-May-18 14:44 32.731733 -117.195017 15 21ft 0kts
13-May-18 14:45 32.732583 -117.194592 28 21ft 19kts
13-May-18 14:46 32.731605 -117.185800 106 17ft 31kts
13-May-18 14:47 32.729680 -117.178008 106 21ft 13kts
13-May-18 14:48 32.729455 -117.176993 88 22ft 3kts
13-May-18 14:49 32.729509 -117.176661 73 23ft 0kts
13-May-18 14:50 32.730350 -117.176361 284 24ft 7kts
13-May-18 14:51 32.730557 -117.177280 285 24ft 0kts
13-May-18 14:52 32.730557 -117.177280 285 24ft 0kts
13-May-18 14:53 32.733904 -117.190986 286 25ft 159kts
13-May-18 14:54 32.752770 -117.248247 306 2787ft 224kts
13-May-18 14:55 32.794896 -117.311339 307 6359ft 263kts
13-May-18 14:56 32.840522 -117.381418 306 10166ft 280kts
13-May-18 14:57 32.891668 -117.460859 306 13186ft 318kts
13-May-18 14:58 32.946256 -117.545762 305 16600ft 332kts
13-May-18 14:59 33.002611 -117.633657 305 19750ft 340kts
13-May-18 15:00 33.060027 -117.723488 306 22609ft 346kts
13-May-18 15:01 33.128465 -117.797226 317 25138ft 350kts
13-May-18 15:02 33.203535 -117.873028 318 27248ft 360kts
13-May-18 15:03 33.281308 -117.948576 318 29135ft 368kts
13-May-18 15:04 33.360016 -118.025248 318 31291ft 363kts
13-May-18 15:05 33.436894 -118.100359 317 33237ft 356kts
13-May-18 15:06 33.512017 -118.173981 317 34878ft 350kts
13-May-18 15:07 33.587487 -118.245123 327 36190ft 353kts
13-May-18 15:08 33.676154 -118.293560 330 37296ft 354kts
13-May-18 15:09 33.750511 -118.333947 330 38090ft 354kts
13-May-18 15:10 33.843888 -118.381369 332 38103ft 380kts
13-May-18 15:11 33.943514 -118.431370 332 38093ft 397kts
13-May-18 15:12 34.045299 -118.482633 332 38089ft 397kts
13-May-18 15:13 34.145059 -118.533138 332 38093ft 397kts
13-May-18 15:14 34.243286 -118.583038 332 38088ft 396kts
13-May-18 15:15 34.342891 -118.633358 332 38089ft 396kts
13-May-18 15:16 34.442332 -118.684510 326 38108ft 409kts
13-May-18 15:17 34.540481 -118.753889 325 38107ft 420kts
13-May-18 15:18 34.636268 -118.822371 325 38093ft 420kts
13-May-18 15:19 34.736072 -118.893934 326 38081ft 421kts
13-May-18 15:20 34.829116 -118.960714 326 38053ft 424kts
13-May-18 15:21 34.926048 -119.030314 328 38010ft 423kts
13-May-18 15:22 35.025897 -119.102024 329 38001ft 414kts
13-May-18 15:23 35.124036 -119.172428 330 38017ft 414kts
13-May-18 15:24 35.222506 -119.243049 330 38012ft 414kts
13-May-18 15:25 35.320669 -119.313445 330 38009ft 413kts
13-May-18 15:26 35.419722 -119.384470 330 38006ft 414kts
13-May-18 15:27 35.518216 -119.455078 330 37998ft 414kts
13-May-18 15:28 35.611104 -119.534915 321 37992ft 416kts
13-May-18 15:29 35.698424 -119.626006 322 37993ft 415kts
13-May-18 15:30 35.785682 -119.716195 321 38002ft 416kts
13-May-18 15:31 35.873093 -119.806480 321 38004ft 415kts
13-May-18 15:32 35.959551 -119.899652 317 37991ft 415kts
13-May-18 15:33 36.039726 -119.996985 318 37993ft 405kts
13-May-18 15:34 36.119162 -120.092200 318 38008ft 405kts
13-May-18 15:35 36.199536 -120.188453 318 37995ft 398kts
13-May-18 15:36 36.275908 -120.280046 318 37956ft 390kts
13-May-18 15:37 36.356005 -120.376173 318 37376ft 419kts
13-May-18 15:38 36.436740 -120.473721 318 36393ft 392kts
13-May-18 15:39 36.511326 -120.564277 318 33022ft 387kts
13-May-18 15:40 36.590440 -120.655487 320 30366ft 393kts
13-May-18 15:41 36.666533 -120.739808 320 27758ft 375kts
13-May-18 15:42 36.743127 -120.824888 320 25051ft 368kts
13-May-18 15:43 36.817165 -120.907094 320 22361ft 341kts
13-May-18 15:44 36.889040 -120.986726 320 20382ft 352kts
13-May-18 15:45 36.961274 -121.067003 320 18387ft 349kts
13-May-18 15:46 37.033314 -121.147292 319 16322ft 346kts
13-May-18 15:47 37.103550 -121.225784 319 14517ft 341kts
13-May-18 15:48 37.166111 -121.296941 318 12986ft 337kts
13-May-18 15:49 37.234263 -121.376154 318 11311ft 329kts
13-May-18 15:50 37.298954 -121.451543 318 10442ft 324kts
13-May-18 15:51 37.359970 -121.522850 318 9656ft 287kts
13-May-18 15:52 37.417481 -121.589152 319 8454ft 275kts
13-May-18 15:53 37.466273 -121.658168 306 7342ft 265kts
13-May-18 15:54 37.508134 -121.731938 306 6541ft 257kts
13-May-18 15:55 37.538993 -121.809254 279 5813ft 258kts
13-May-18 15:56 37.547699 -121.895981 278 4995ft 245kts
13-May-18 15:57 37.556622 -121.977842 278 4232ft 213kts
13-May-18 15:58 37.583201 -122.037196 310 3390ft 196kts
13-May-18 15:59 37.614842 -122.084607 309 2659ft 166kts
13-May-18 16:00 37.643648 -122.127650 308 1780ft 153kts
13-May-18 16:01 37.668392 -122.164665 307 1037ft 136kts
13-May-18 16:02 37.692937 -122.200960 305 338ft 138kts
13-May-18 16:03 37.710860 -122.228332 307 11ft 39kts
13-May-18 16:04 37.714270 -122.231369 345 11ft 1kts
13-May-18 16:05 37.714881 -122.231279 43 11ft 13kts
13-May-18 16:06 37.711557 -122.225555 128 11ft 28kts
13-May-18 16:07 37.712055 -122.220608 131 11ft 20kts
13-May-18 16:08 37.709387 -122.215192 42 11ft 13kts
13-May-18 16:09 37.710352 -122.212626 116 11ft 4kts
13-May-18 16:10 37.710148 -122.212184 123 11ft 0kts

Navigation Log

Ident Type
Flight plan parsing failed, navigation log unavailable